Time;durP1;ratioP1;P1;durP2;ratioP2;P2;SDS_P1;SDS_P2;PMS_P1;PMS_P2;Temp;Humidity;BMP_temperature;BMP_pressure;BME280_temperature;BME280_humidity;BME280_pressure;Samples;Min_cycle;Max_cycle;Signal;HPM_P1;HPM_P2
2022/11/19 00:00:13;;;;;;;1.23;0.10;;;;;;;2.54;58.35;102104.84;5037642;28;20053;-74
2022/11/19 00:02:40;;;;;;;0.22;0.10;;;;;;;2.47;58.67;102091.69;5038169;28;20057;-74
2022/11/19 00:05:07;;;;;;;0.40;0.20;;;;;;;2.54;58.76;102102.25;5035964;28;20049;-74
2022/11/19 00:07:34;;;;;;;0.30;0.13;;;;;;;2.53;58.31;102103.06;5034609;28;20128;-74
2022/11/19 00:10:01;;;;;;;0.17;0.10;;;;;;;2.52;58.47;102096.16;5035927;28;20055;-75
2022/11/19 00:15:14;;;;;;;;;;;;;;;2.50;58.73;102084.91;5042473;28;20052;-75
2022/11/19 00:17:41;;;;;;;0.20;0.10;;;;;;;2.49;58.58;102091.78;5040171;28;19921;-74
2022/11/19 00:20:09;;;;;;;0.30;0.10;;;;;;;2.49;59.00;102081.44;5034697;28;20056;-74
2022/11/19 00:22:36;;;;;;;1.13;0.10;;;;;;;2.48;58.38;102085.75;5039782;28;20045;-74
2022/11/19 00:25:03;;;;;;;0.98;0.35;;;;;;;2.39;58.83;102072.53;5038301;28;20037;-74
2022/11/19 00:27:32;;;;;;;0.38;0.10;;;;;;;2.44;58.27;102078.69;5037162;28;20049;-75
2022/11/19 00:29:59;;;;;;;0.30;0.10;;;;;;;2.44;58.30;102076.13;5038758;28;20055;-74
2022/11/19 00:32:26;;;;;;;1.15;0.20;;;;;;;2.41;58.81;102076.00;5037580;28;20044;-74
2022/11/19 00:34:53;;;;;;;0.40;0.10;;;;;;;2.42;58.59;102070.06;5036078;28;20051;-73
2022/11/19 00:37:20;;;;;;;0.20;0.10;;;;;;;2.40;58.60;102056.22;5038345;28;20047;-74
2022/11/19 00:39:47;;;;;;;0.10;0.10;;;;;;;2.42;58.62;102054.56;5039893;28;20502;-74
2022/11/19 00:42:13;;;;;;;0.10;0.10;;;;;;;2.41;58.35;102060.53;5034137;28;20080;-74
2022/11/19 00:44:42;;;;;;;1.77;0.20;;;;;;;2.42;58.48;102064.88;5036755;28;20060;-75
2022/11/19 00:47:09;;;;;;;0.10;0.10;;;;;;;2.42;58.09;102067.47;5036021;28;20048;-74
2022/11/19 00:49:36;;;;;;;0.30;0.20;;;;;;;2.41;58.87;102060.53;5038202;28;20483;-74
2022/11/19 00:52:03;;;;;;;0.20;0.20;;;;;;;2.40;58.88;102061.38;5039040;28;20478;-74
2022/11/19 00:54:30;;;;;;;0.10;0.10;;;;;;;2.38;58.72;102062.13;5034843;28;20514;-74
2022/11/19 00:56:57;;;;;;;0.20;0.10;;;;;;;2.36;58.62;102068.94;5038330;28;20057;-74
2022/11/19 00:59:24;;;;;;;0.10;0.10;;;;;;;2.35;58.28;102067.19;5038262;28;20045;-74
2022/11/19 01:01:52;;;;;;;0.40;0.10;;;;;;;2.34;58.67;102075.75;5039516;28;20055;-75
2022/11/19 01:04:19;;;;;;;0.10;0.10;;;;;;;2.33;58.36;102069.69;5040633;28;20128;-73
2022/11/19 01:06:46;;;;;;;1.75;0.10;;;;;;;2.35;58.83;102074.91;5039274;28;20050;-74
2022/11/19 01:09:13;;;;;;;2.15;0.10;;;;;;;2.34;58.83;102068.91;5036711;28;20060;-74
2022/11/19 01:11:40;;;;;;;0.40;0.20;;;;;;;2.33;58.91;102069.69;5038265;28;20128;-74
2022/11/19 01:14:08;;;;;;;0.25;0.10;;;;;;;2.33;58.63;102072.28;5040896;28;20053;-76
2022/11/19 01:16:37;;;;;;;0.28;0.03;;;;;;;2.34;58.46;102070.59;5041327;28;20556;-74
2022/11/19 01:19:07;;;;;;;0.10;0.08;;;;;;;2.33;58.97;102066.25;5038112;28;21296;-74
2022/11/19 01:21:35;;;;;;;0.32;0.10;;;;;;;2.32;58.66;102072.25;5037675;28;20045;-73
2022/11/19 01:24:03;;;;;;;1.30;0.10;;;;;;;2.31;59.23;102070.50;5039305;28;20056;-74
2022/11/19 01:26:30;;;;;;;0.80;0.10;;;;;;;2.29;59.12;102070.41;5038327;28;20045;-74
2022/11/19 01:28:58;;;;;;;3.20;0.20;;;;;;;2.28;58.31;102060.94;5040409;28;20065;-74
2022/11/19 01:31:27;;;;;;;0.38;0.10;;;;;;;2.28;58.71;102063.53;5036991;28;20064;-73
2022/11/19 01:33:54;;;;;;;1.98;0.10;;;;;;;2.17;58.74;102041.63;5040398;28;20045;-74
2022/11/19 01:36:24;;;;;;;0.10;0.10;;;;;;;2.29;58.48;102057.53;5041848;28;20125;-73
2022/11/19 01:38:53;;;;;;;0.13;0.10;;;;;;;2.30;59.07;102055.81;5040435;28;20399;-74
2022/11/19 01:41:21;;;;;;;0.75;0.10;;;;;;;2.30;58.25;102058.41;5043001;28;20136;-74
2022/11/19 01:43:51;;;;;;;0.20;0.10;;;;;;;2.31;58.58;102057.59;5038311;28;20049;-74
2022/11/19 01:46:19;;;;;;;0.47;0.20;;;;;;;2.29;58.33;102056.66;5039699;28;20053;-74
2022/11/19 01:48:51;;;;;;;0.57;0.10;;;;;;;2.31;58.49;102050.75;5039952;28;20139;-74
2022/11/19 01:51:24;;;;;;;0.20;0.10;;;;;;;2.32;58.11;102065.38;5037000;28;20052;-75
2022/11/19 01:53:55;;;;;;;0.10;0.10;;;;;;;2.31;58.70;102057.59;5041133;28;20063;-73
2022/11/19 01:56:25;;;;;;;0.40;0.10;;;;;;;2.30;58.58;102059.28;5040148;28;20502;-73
2022/11/19 01:58:58;;;;;;;1.60;0.10;;;;;;;2.31;58.78;102070.50;5039154;28;20055;-74
2022/11/19 02:01:26;;;;;;;1.17;0.10;;;;;;;2.29;58.73;102077.28;5041439;28;20045;-73
2022/11/19 02:03:53;;;;;;;0.10;0.10;;;;;;;2.29;58.71;102078.16;5041287;28;20053;-74
2022/11/19 02:06:22;;;;;;;0.32;0.20;;;;;;;2.31;59.16;102084.25;5040658;28;20060;-74
2022/11/19 02:08:50;;;;;;;0.10;0.10;;;;;;;2.30;58.54;102068.72;5040871;28;20047;-73
2022/11/19 02:11:28;;;;;;;0.65;0.10;;;;;;;2.30;58.88;102053.25;5036329;28;20115;-73
2022/11/19 02:14:08;;;;;;;2.40;0.20;;;;;;;2.30;58.97;102045.50;5042590;28;20691;-75
2022/11/19 02:16:46;;;;;;;0.20;0.10;;;;;;;2.24;58.84;102020.38;5038815;28;20052;-73
2022/11/19 02:19:36;;;;;;;1.30;0.10;;;;;;;2.31;58.69;102040.44;5038854;28;20046;-74
2022/11/19 02:22:16;;;;;;;3.33;0.20;;;;;;;2.28;58.37;102029.09;5037349;28;20037;-74
2022/11/19 02:24:51;;;;;;;0.50;0.10;;;;;;;2.25;58.04;102017.00;5036806;28;20566;-74
2022/11/19 02:27:56;;;;;;;0.95;0.20;;;;;;;2.25;58.73;102014.44;5040230;28;20503;-74
2022/11/19 02:30:24;;;;;;;0.10;0.10;;;;;;;2.19;58.36;102003.88;5035737;28;20505;-74
2022/11/19 02:32:59;;;;;;;0.10;0.10;;;;;;;2.22;58.07;102001.41;5043333;28;20045;-73
2022/11/19 02:35:40;;;;;;;0.50;0.10;;;;;;;2.22;58.58;102016.88;5036377;28;20045;-74
2022/11/19 02:38:15;;;;;;;1.60;0.10;;;;;;;2.20;58.42;102011.69;5035628;28;20446;-74
2022/11/19 02:40:48;;;;;;;1.10;0.13;;;;;;;2.20;58.09;102026.28;5037616;28;20088;-74
2022/11/19 02:43:20;;;;;;;0.38;0.08;;;;;;;2.18;58.65;102025.34;5039990;28;20040;-74
2022/11/19 02:45:52;;;;;;;0.20;0.10;;;;;;;2.20;58.71;102036.59;5039178;28;20091;-74
2022/11/19 02:48:25;;;;;;;0.20;0.10;;;;;;;2.19;58.89;102034.81;5036386;28;20405;-74
2022/11/19 02:50:54;;;;;;;0.30;0.10;;;;;;;2.19;58.76;102032.22;5038376;28;20053;-74
2022/11/19 02:53:22;;;;;;;0.38;0.10;;;;;;;2.16;58.47;102017.56;5037203;28;20040;-74
2022/11/19 03:06:46;;;;;;;1.58;0.10;;;;;;;2.14;58.53;102021.78;5040331;28;20048;-75
2022/11/19 03:09:14;;;;;;;0.38;0.20;;;;;;;2.15;59.23;102022.66;5037540;28;20474;-75
2022/11/19 03:11:46;;;;;;;0.10;0.10;;;;;;;2.17;59.57;102026.16;5037583;28;20045;-74
2022/11/19 03:17:08;;;;;;;0.25;0.10;;;;;;;2.14;58.83;102015.75;5040139;28;20064;-74
2022/11/19 03:19:39;;;;;;;0.30;0.20;;;;;;;2.13;59.14;102024.28;5038387;28;20053;-74
2022/11/19 03:22:10;;;;;;;0.75;0.10;;;;;;;2.12;58.91;102017.38;5039522;28;20976;-75
2022/11/19 03:24:42;;;;;;;1.20;0.35;;;;;;;2.11;58.99;102020.78;5040559;28;20056;-74
2022/11/19 03:27:12;;;;;;;0.20;0.10;;;;;;;2.12;59.40;102022.53;5034001;28;20053;-74
2022/11/19 03:29:43;;;;;;;0.10;0.10;;;;;;;2.07;59.52;102018.91;5038697;28;20064;-75
2022/11/19 03:32:16;;;;;;;0.30;0.10;;;;;;;2.02;59.15;102001.59;5040570;28;20586;-74
2022/11/19 03:34:46;;;;;;;0.40;0.10;;;;;;;2.08;59.38;102010.34;5040492;28;20044;-75
2022/11/19 03:37:16;;;;;;;0.10;0.10;;;;;;;2.08;59.23;102012.91;5039473;28;20041;-74
2022/11/19 03:39:45;;;;;;;0.10;0.00;;;;;;;2.02;59.59;102001.59;5035680;28;20053;-75
2022/11/19 03:42:14;;;;;;;0.17;0.17;;;;;;;2.05;59.42;102010.22;5040977;28;20160;-74
2022/11/19 03:44:46;;;;;;;2.28;0.20;;;;;;;2.03;58.72;102021.38;5037698;28;20060;-74
2022/11/19 03:47:18;;;;;;;0.28;0.20;;;;;;;2.01;59.26;102007.53;5039270;28;20140;-73
2022/11/19 03:49:48;;;;;;;0.10;0.10;;;;;;;1.98;59.33;102004.00;5037502;28;20045;-73
2022/11/19 03:52:19;;;;;;;0.10;0.10;;;;;;;2.04;58.95;102019.66;5035498;28;20046;-73
2022/11/19 03:54:46;;;;;;;0.28;0.10;;;;;;;2.05;59.78;102020.53;5035892;28;20047;-73
2022/11/19 03:57:18;;;;;;;0.15;0.10;;;;;;;2.06;59.75;102019.75;5037302;28;20091;-73
2022/11/19 03:59:45;;;;;;;0.50;0.10;;;;;;;2.05;59.88;102011.13;5043259;28;20049;-72
2022/11/19 04:02:13;;;;;;;0.10;0.10;;;;;;;2.07;60.31;102014.63;5034602;28;20045;-72
2022/11/19 04:04:42;;;;;;;0.52;0.15;;;;;;;2.07;59.34;102017.19;5039498;28;20056;-72
2022/11/19 04:07:11;;;;;;;0.10;0.00;;;;;;;2.08;59.71;102018.06;5035993;28;20081;-72
2022/11/19 04:09:40;;;;;;;0.70;0.10;;;;;;;2.03;59.90;102008.50;5035042;28;20063;-72
2022/11/19 04:12:08;;;;;;;0.20;0.20;;;;;;;2.05;59.59;102000.84;5038604;28;20539;-73
2022/11/19 04:14:35;;;;;;;0.52;0.52;;;;;;;2.03;59.35;102000.75;5035115;28;20055;-73
2022/11/19 04:17:02;;;;;;;0.28;0.10;;;;;;;1.92;60.13;101980.59;5033024;28;20057;-74
2022/11/19 04:19:29;;;;;;;0.05;0.00;;;;;;;2.03;60.16;102003.34;5038242;28;20069;-73
2022/11/19 04:21:57;;;;;;;0.20;0.10;;;;;;;1.91;60.34;101981.41;5034339;28;20045;-73
2022/11/19 04:24:24;;;;;;;1.42;0.10;;;;;;;1.92;60.45;101986.59;5035524;28;20056;-73
2022/11/19 04:26:51;;;;;;;0.10;0.10;;;;;;;2.00;60.51;102000.66;5038756;28;20045;-73
2022/11/19 04:29:18;;;;;;;0.70;0.10;;;;;;;2.00;60.42;101995.50;5041752;28;20041;-73
2022/11/19 04:31:44;;;;;;;0.82;0.28;;;;;;;2.02;60.11;101991.28;5035980;28;20140;-73
2022/11/19 04:34:11;;;;;;;1.10;0.15;;;;;;;2.03;60.36;101987.00;5037997;28;20174;-73
2022/11/19 04:36:40;;;;;;;0.08;0.00;;;;;;;2.05;60.05;101979.31;5037128;28;20093;-73
2022/11/19 04:39:11;;;;;;;2.35;0.10;;;;;;;2.05;59.48;101985.38;5036579;28;20080;-73
2022/11/19 04:41:39;;;;;;;0.40;0.40;;;;;;;2.06;59.82;101986.25;5037720;28;20049;-73
2022/11/19 04:44:06;;;;;;;2.28;0.15;;;;;;;2.06;59.68;101986.25;5035807;28;20049;-72
2022/11/19 04:46:34;;;;;;;0.22;0.10;;;;;;;2.05;60.02;101979.31;5034372;28;20096;-73
2022/11/19 04:49:01;;;;;;;1.38;0.10;;;;;;;2.09;60.10;101973.47;5036537;28;20041;-73
2022/11/19 04:51:28;;;;;;;0.30;0.10;;;;;;;2.06;59.45;101965.63;5034629;28;20060;-73
2022/11/19 04:53:55;;;;;;;0.68;0.10;;;;;;;2.09;59.37;101966.59;5039003;28;20041;-73
2022/11/19 04:56:23;;;;;;;1.65;0.10;;;;;;;2.10;59.46;101985.50;5037593;28;20053;-73
2022/11/19 04:58:50;;;;;;;1.30;0.10;;;;;;;2.00;59.56;101969.72;5037854;28;20046;-72
2022/11/19 05:01:19;;;;;;;0.10;0.10;;;;;;;2.07;59.76;101975.09;5040272;28;20072;-73
2022/11/19 05:03:46;;;;;;;0.40;0.10;;;;;;;2.08;59.87;101971.69;5036437;28;20041;-73
2022/11/19 05:06:13;;;;;;;0.10;0.10;;;;;;;2.09;59.96;101976.03;5039871;28;20537;-73
2022/11/19 05:08:40;;;;;;;0.10;0.00;;;;;;;2.09;59.51;101987.22;5042888;28;20049;-73
2022/11/19 05:11:07;;;;;;;0.45;0.20;;;;;;;2.09;59.30;101978.63;5043195;28;20043;-73
2022/11/19 05:13:35;;;;;;;0.20;0.10;;;;;;;2.07;59.38;101968.22;5045882;28;20513;-73
2022/11/19 05:16:03;;;;;;;0.10;0.10;;;;;;;2.09;59.52;101983.75;5038114;28;20052;-73
2022/11/19 05:18:30;;;;;;;0.80;0.20;;;;;;;1.98;59.34;101952.44;5037291;28;20037;-73
2022/11/19 05:20:57;;;;;;;0.98;0.10;;;;;;;2.07;59.28;101967.38;5041040;28;20057;-74
2022/11/19 05:23:24;;;;;;;0.13;0.00;;;;;;;2.05;59.29;101969.00;5038968;28;20046;-74
2022/11/19 05:25:51;;;;;;;0.10;0.10;;;;;;;2.07;58.96;101980.25;5038112;28;20111;-72
2022/11/19 05:28:18;;;;;;;2.28;0.10;;;;;;;2.07;59.41;101967.38;5039775;28;20518;-73
2022/11/19 05:30:46;;;;;;;0.90;0.22;;;;;;;2.08;59.09;101970.00;5042926;28;20490;-73
2022/11/19 05:33:13;;;;;;;0.98;0.10;;;;;;;2.09;59.32;101965.72;5042610;28;20041;-73
2022/11/19 05:35:40;;;;;;;0.20;0.13;;;;;;;2.09;59.65;101966.59;5040019;28;20049;-73
2022/11/19 05:38:07;;;;;;;2.03;0.20;;;;;;;2.08;59.63;101962.28;5042184;28;20136;-73
2022/11/19 05:40:34;;;;;;;1.00;0.20;;;;;;;2.12;59.15;101971.84;5039490;28;20506;-73
2022/11/19 05:43:04;;;;;;;0.65;0.10;;;;;;;2.07;59.32;101951.91;5038845;28;20076;-73
2022/11/19 05:45:31;;;;;;;0.15;0.10;;;;;;;2.06;59.60;101955.31;5037445;28;20057;-73
2022/11/19 05:48:00;;;;;;;0.25;0.13;;;;;;;2.12;59.15;101970.97;5039828;28;20421;-73
2022/11/19 05:50:27;;;;;;;0.75;0.20;;;;;;;2.12;59.55;101958.97;5035787;28;20057;-73
2022/11/19 05:52:53;;;;;;;0.40;0.30;;;;;;;2.14;59.43;101964.19;5042923;28;20045;-73
2022/11/19 05:55:20;;;;;;;0.30;0.10;;;;;;;2.12;59.29;101968.41;5045418;28;20056;-73
2022/11/19 05:57:48;;;;;;;0.08;0.08;;;;;;;2.00;59.49;101948.25;5037217;28;20135;-74
2022/11/19 06:00:16;;;;;;;0.15;0.10;;;;;;;2.14;59.67;101969.34;5042829;28;20538;-73
2022/11/19 06:02:43;;;;;;;1.45;0.10;;;;;;;2.15;59.54;101978.81;5041928;28;20528;-73
2022/11/19 06:05:12;;;;;;;0.98;0.10;;;;;;;2.14;59.22;101971.94;5037198;28;20502;-74
2022/11/19 06:07:39;;;;;;;0.55;0.10;;;;;;;2.12;59.13;101965.81;5037819;28;20150;-73
2022/11/19 06:10:07;;;;;;;0.65;0.20;;;;;;;2.12;59.34;101964.13;5037363;28;20056;-77
2022/11/19 06:12:34;;;;;;;1.20;0.20;;;;;;;2.12;59.42;101958.09;5039198;28;20478;-73
2022/11/19 06:15:01;;;;;;;0.30;0.20;;;;;;;2.03;59.34;101956.94;5037867;28;20046;-74
2022/11/19 06:17:28;;;;;;;0.22;0.20;;;;;;;2.05;59.31;101961.25;5037344;28;20127;-73
2022/11/19 06:19:55;;;;;;;1.50;0.30;;;;;;;2.06;59.79;101966.50;5037180;28;20467;-73
2022/11/19 06:22:23;;;;;;;0.30;0.10;;;;;;;2.07;59.33;101972.50;5035564;28;20056;-73
2022/11/19 06:24:50;;;;;;;0.30;0.20;;;;;;;2.06;59.47;101957.88;5035965;28;20492;-74
2022/11/19 06:27:17;;;;;;;0.17;0.15;;;;;;;2.05;59.34;101958.69;5037152;28;20041;-72
2022/11/19 06:29:44;;;;;;;1.73;0.52;;;;;;;2.04;59.29;101962.97;5036006;28;20164;-73
2022/11/19 06:32:11;;;;;;;0.10;0.10;;;;;;;2.07;59.23;101962.22;5038730;28;20434;-73
2022/11/19 06:34:38;;;;;;;0.28;0.20;;;;;;;2.03;59.49;101946.63;5040598;28;20525;-73
2022/11/19 06:37:05;;;;;;;2.38;0.10;;;;;;;2.07;58.98;101954.47;5038408;28;20052;-73
2022/11/19 06:39:33;;;;;;;0.13;0.10;;;;;;;2.06;59.23;101963.03;5036982;28;20164;-73
2022/11/19 06:42:34;;;;;;;1.55;0.20;;;;;;;2.03;58.94;101956.94;5043148;28;20051;-73
2022/11/19 06:44:48;;;;;;;0.50;0.30;;;;;;;2.00;59.59;101949.09;5039437;28;20213;-74
2022/11/19 06:47:15;;;;;;;0.22;0.20;;;;;;;2.01;59.47;101968.03;5039159;28;20059;-73
2022/11/19 06:49:42;;;;;;;1.05;0.10;;;;;;;1.98;58.74;101953.31;5038785;28;20049;-74
2022/11/19 06:52:08;;;;;;;0.20;0.20;;;;;;;1.96;58.91;101960.16;5033640;28;20053;-73
2022/11/19 06:54:37;;;;;;;0.13;0.10;;;;;;;1.96;60.01;101959.25;5035310;28;20132;-74
2022/11/19 06:57:04;;;;;;;0.73;0.20;;;;;;;1.94;59.24;101959.22;5036930;28;20102;-72
2022/11/19 06:59:31;;;;;;;0.20;0.08;;;;;;;1.93;59.78;101954.84;5034528;28;20417;-73
2022/11/19 07:01:58;;;;;;;0.35;0.22;;;;;;;1.94;59.35;101960.91;5035992;28;20132;-74
2022/11/19 07:04:25;;;;;;;0.55;0.25;;;;;;;1.94;59.47;101966.94;5034416;28;20057;-74
2022/11/19 07:06:52;;;;;;;0.43;0.15;;;;;;;1.94;59.67;101974.66;5035836;28;20056;-75
2022/11/19 07:09:19;;;;;;;0.90;0.10;;;;;;;1.94;59.94;101961.78;5038078;28;20052;-74
2022/11/19 07:11:48;;;;;;;0.82;0.20;;;;;;;1.93;59.56;101957.44;5038612;28;20045;-73
2022/11/19 07:14:15;;;;;;;0.10;0.10;;;;;;;1.94;59.38;101966.94;5038543;28;20045;-74
2022/11/19 07:16:41;;;;;;;1.65;0.10;;;;;;;1.91;59.80;101959.09;5039625;28;20091;-74
2022/11/19 07:19:09;;;;;;;0.50;0.30;;;;;;;1.90;59.54;101962.47;5039541;28;20057;-74
2022/11/19 07:21:36;;;;;;;0.30;0.15;;;;;;;1.88;60.31;101961.56;5035266;28;20049;-74
2022/11/19 07:24:05;;;;;;;0.28;0.28;;;;;;;1.87;60.07;101952.06;5035946;28;20048;-74
2022/11/19 07:26:34;;;;;;;1.10;0.20;;;;;;;1.80;60.69;101942.38;5040275;28;20050;-74
2022/11/19 07:29:03;;;;;;;1.15;0.22;;;;;;;1.87;60.42;101954.63;5035218;28;20144;-74
2022/11/19 07:31:30;;;;;;;0.77;0.20;;;;;;;1.84;60.96;101953.66;5033302;28;20064;-75
2022/11/19 07:33:57;;;;;;;0.50;0.20;;;;;;;1.85;60.95;101948.56;5042408;28;20049;-75
2022/11/19 07:36:25;;;;;;;0.30;0.20;;;;;;;1.70;60.54;101929.97;5035699;28;20508;-74
2022/11/19 07:38:52;;;;;;;0.35;0.20;;;;;;;1.84;60.43;101953.66;5034641;28;20054;-74
2022/11/19 07:44:04;;;;;;;0.22;0.10;;;;;;;1.82;60.65;101945.84;5034747;28;20060;-74
2022/11/19 07:46:31;;;;;;;0.68;0.20;;;;;;;1.80;60.04;101944.94;5032808;28;20052;-74
2022/11/19 07:48:59;;;;;;;1.08;0.22;;;;;;;1.70;60.94;101927.41;5036263;28;20162;-75
2022/11/19 07:51:26;;;;;;;1.52;0.20;;;;;;;1.78;60.92;101944.00;5034263;28;20049;-75
2022/11/19 07:53:55;;;;;;;1.95;0.20;;;;;;;1.79;60.30;101940.59;5038402;28;20044;-75
2022/11/19 07:56:22;;;;;;;0.70;0.20;;;;;;;1.77;61.25;101939.69;5039110;28;20042;-74
2022/11/19 07:58:49;;;;;;;0.98;0.30;;;;;;;1.76;61.28;101930.19;5038582;28;20049;-74
2022/11/19 08:01:19;;;;;;;1.85;0.20;;;;;;;1.76;61.37;101937.91;5035928;28;20053;-74
2022/11/19 08:03:47;;;;;;;0.45;0.20;;;;;;;1.72;62.05;101921.47;5036321;28;20041;-74
2022/11/19 08:06:15;;;;;;;0.35;0.13;;;;;;;1.74;60.84;101927.56;5034092;28;20056;-74
2022/11/19 08:08:42;;;;;;;0.22;0.20;;;;;;;1.73;61.42;101927.50;5039979;28;20041;-74
2022/11/19 08:11:11;;;;;;;0.32;0.20;;;;;;;1.71;62.50;101913.72;5036652;28;20041;-74
2022/11/19 08:13:38;;;;;;;1.05;0.20;;;;;;;1.69;61.31;101916.22;5039097;28;20042;-74
2022/11/19 08:16:08;;;;;;;0.32;0.10;;;;;;;1.70;61.79;101914.50;5035346;28;20547;-74
2022/11/19 08:18:36;;;;;;;0.90;0.20;;;;;;;1.70;61.78;101911.94;5036911;28;20418;-73
2022/11/19 08:21:05;;;;;;;0.38;0.20;;;;;;;1.68;62.13;101905.84;5041658;28;20075;-74
2022/11/19 08:23:33;;;;;;;4.57;0.30;;;;;;;1.66;62.07;101908.38;5035705;28;20037;-73
2022/11/19 08:26:00;;;;;;;0.20;0.10;;;;;;;1.70;62.39;101911.94;5034848;28;20071;-74
2022/11/19 08:28:28;;;;;;;1.05;0.20;;;;;;;1.68;62.38;101911.00;5034381;28;20052;-72
2022/11/19 08:30:56;;;;;;;0.68;0.20;;;;;;;1.67;63.01;101904.09;5034892;28;20037;-74
2022/11/19 08:33:23;;;;;;;0.73;0.30;;;;;;;1.68;63.16;101911.91;5036686;28;20041;-73
2022/11/19 08:35:55;;;;;;;0.40;0.20;;;;;;;1.67;62.64;101899.81;5036797;28;20052;-72
2022/11/19 08:38:22;;;;;;;0.47;0.10;;;;;;;1.61;63.26;101893.59;5039318;28;20131;-74
2022/11/19 08:40:51;;;;;;;0.10;0.10;;;;;;;1.66;62.68;101910.09;5035418;28;20057;-74
2022/11/19 08:43:17;;;;;;;0.80;0.30;;;;;;;1.63;63.49;101904.84;5039547;28;20044;-73
2022/11/19 08:45:52;;;;;;;2.55;0.30;;;;;;;1.64;63.82;101898.84;5035427;28;20836;-75
2022/11/19 08:48:19;;;;;;;0.68;0.30;;;;;;;1.62;64.19;101900.47;5033703;28;20080;-74
2022/11/19 08:50:46;;;;;;;1.50;0.30;;;;;;;1.58;64.34;101887.50;5039704;28;20532;-74
2022/11/19 08:53:14;;;;;;;0.50;0.35;;;;;;;1.60;63.80;101891.84;5036159;28;20049;-73
2022/11/19 08:55:41;;;;;;;1.58;0.38;;;;;;;1.60;65.05;101897.00;5037914;28;20057;-73
2022/11/19 08:58:08;;;;;;;2.00;0.20;;;;;;;1.60;64.59;101886.69;5034646;28;20044;-74
2022/11/19 09:00:37;;;;;;;1.55;0.47;;;;;;;1.60;64.98;101884.13;5037409;28;20048;-74
2022/11/19 09:03:16;;;;;;;0.95;0.30;;;;;;;1.61;65.00;101878.13;5035726;28;20087;-73
2022/11/19 09:05:43;;;;;;;1.48;0.30;;;;;;;1.62;65.65;101890.19;5032835;28;20461;-71
2022/11/19 09:08:10;;;;;;;2.38;0.17;;;;;;;1.62;65.74;101875.59;5039049;28;20048;-71
2022/11/19 09:10:39;;;;;;;0.60;0.30;;;;;;;1.61;65.69;101873.84;5037953;28;20049;-71
2022/11/19 09:13:07;;;;;;;0.75;0.20;;;;;;;1.63;66.10;101882.53;5038527;28;20410;-71
2022/11/19 09:15:34;;;;;;;1.80;0.20;;;;;;;1.63;65.52;101874.78;5036049;28;20041;-71
2022/11/19 09:18:01;;;;;;;0.10;0.10;;;;;;;1.55;65.86;101864.22;5037985;28;20310;-71
2022/11/19 09:20:28;;;;;;;0.20;0.20;;;;;;;1.65;66.16;101869.69;5037566;28;20061;-72
2022/11/19 09:22:55;;;;;;;0.30;0.20;;;;;;;1.66;65.80;101861.16;5037753;28;20041;-71
2022/11/19 09:25:21;;;;;;;0.40;0.20;;;;;;;1.69;65.87;101864.72;5038245;28;20552;-77
2022/11/19 09:27:50;;;;;;;0.40;0.30;;;;;;;1.70;66.04;101865.56;5038429;28;20072;-71
2022/11/19 09:30:17;;;;;;;1.33;0.30;;;;;;;1.71;66.51;101860.50;5034084;28;20049;-69
2022/11/19 09:32:44;;;;;;;0.68;0.20;;;;;;;1.71;66.43;101859.63;5035993;28;20052;-69
2022/11/19 09:35:11;;;;;;;0.80;0.28;;;;;;;1.73;66.84;101868.25;5037399;28;20049;-70
2022/11/19 09:37:37;;;;;;;2.67;0.30;;;;;;;1.73;67.34;101866.56;5035059;28;20059;-69
2022/11/19 09:40:07;;;;;;;0.45;0.20;;;;;;;1.74;66.92;101864.88;5042255;28;20048;-75
2022/11/19 09:42:44;;;;;;;0.20;0.20;;;;;;;1.74;67.20;101860.59;5038311;28;20056;-75
2022/11/19 09:45:21;;;;;;;0.60;0.10;;;;;;;1.76;66.90;101863.22;5038470;28;20060;-76
2022/11/19 09:48:16;;;;;;;3.50;0.30;;;;;;;1.75;66.71;101858.91;5038199;28;20049;-76
2022/11/19 09:50:52;;;;;;;1.80;0.30;;;;;;;1.73;66.95;101847.66;5040975;28;20087;-76
2022/11/19 09:53:21;;;;;;;0.20;0.20;;;;;;;1.74;66.82;101857.16;5039824;28;20042;-76
2022/11/19 09:55:51;;;;;;;0.45;0.22;;;;;;;1.73;66.77;101852.81;5041137;28;20045;-75
2022/11/19 09:58:22;;;;;;;0.50;0.25;;;;;;;1.73;67.16;101852.81;5041813;28;20052;-76
2022/11/19 10:00:51;;;;;;;1.02;0.40;;;;;;;1.74;66.88;101858.03;5040809;28;20048;-76
2022/11/19 10:03:22;;;;;;;1.50;0.30;;;;;;;1.73;67.75;101847.66;5046418;28;20128;-76
2022/11/19 10:06:20;;;;;;;1.08;0.40;;;;;;;1.68;67.27;101836.31;5040035;28;20055;-76
2022/11/19 10:09:10;;;;;;;0.47;0.40;;;;;;;1.71;67.86;101845.03;5044830;28;20040;-77
2022/11/19 10:11:47;;;;;;;2.05;0.20;;;;;;;1.70;67.69;101850.13;5036010;28;20132;-77
2022/11/19 10:14:35;;;;;;;1.33;0.30;;;;;;;1.68;67.65;101839.78;5045109;28;20041;-76
2022/11/19 10:17:17;;;;;;;1.08;0.30;;;;;;;1.67;67.68;101834.56;5042016;28;20060;-76
2022/11/19 10:19:55;;;;;;;1.40;0.30;;;;;;;1.66;68.19;101835.41;5043473;28;20061;-76
2022/11/19 10:22:24;;;;;;;1.88;0.30;;;;;;;1.64;68.17;101835.34;5047579;28;20056;-76
2022/11/19 10:25:02;;;;;;;0.32;0.20;;;;;;;1.57;68.29;101821.38;5046540;28;20167;-77
2022/11/19 10:27:35;;;;;;;1.98;0.40;;;;;;;1.62;68.29;101823.22;5046751;28;20045;-77
2022/11/19 10:30:12;;;;;;;0.85;0.30;;;;;;;1.60;68.45;101828.34;5042486;28;20422;-77
2022/11/19 10:32:44;;;;;;;0.25;0.20;;;;;;;1.60;68.95;101830.03;5047772;28;20432;-77
2022/11/19 10:35:18;;;;;;;1.98;0.30;;;;;;;1.59;69.66;101826.56;5041948;28;20064;-77
2022/11/19 10:37:55;;;;;;;1.98;0.40;;;;;;;1.57;69.15;101823.06;5043194;28;20041;-77
2022/11/19 10:40:25;;;;;;;1.60;0.40;;;;;;;1.45;70.01;101794.31;5040266;28;20516;-77
2022/11/19 10:42:58;;;;;;;0.85;0.30;;;;;;;1.56;69.35;101809.31;5042653;28;20132;-76
2022/11/19 10:45:28;;;;;;;2.65;0.50;;;;;;;1.49;70.09;101797.06;5037662;28;20049;-77
2022/11/19 10:48:04;;;;;;;0.85;0.40;;;;;;;1.56;69.55;101811.88;5041524;28;20052;-76
2022/11/19 10:50:31;;;;;;;0.40;0.40;;;;;;;1.52;70.45;101802.31;5044153;28;20453;-76
2022/11/19 10:53:02;;;;;;;1.55;0.80;;;;;;;1.50;70.29;101785.91;5043167;28;20047;-76
2022/11/19 10:55:35;;;;;;;1.05;0.73;;;;;;;1.56;70.02;101795.56;5047309;28;20041;-76
2022/11/19 10:58:14;;;;;;;2.70;0.40;;;;;;;1.44;70.56;101780.56;5042261;28;20069;-75
2022/11/19 11:00:42;;;;;;;0.63;0.52;;;;;;;1.54;69.65;101790.38;5040429;28;20053;-76
2022/11/19 11:03:21;;;;;;;0.80;0.30;;;;;;;1.53;70.26;101786.03;5040242;28;20053;-76
2022/11/19 11:05:57;;;;;;;1.17;0.50;;;;;;;1.55;69.84;101792.09;5041192;28;20044;-76
2022/11/19 11:08:25;;;;;;;2.00;0.40;;;;;;;1.54;69.88;101780.06;5042105;28;20501;-76
2022/11/19 11:10:52;;;;;;;1.35;0.40;;;;;;;1.52;70.87;101779.13;5042574;28;20049;-77
2022/11/19 11:16:18;;;;;;;1.55;0.60;;;;;;;1.51;70.55;101759.38;5039439;28;20056;-76
2022/11/19 11:18:48;;;;;;;1.33;0.50;;;;;;;1.52;71.55;101753.38;5042410;28;20053;-76
2022/11/19 11:21:29;;;;;;;0.82;0.52;;;;;;;1.55;71.43;101768.94;5037632;28;20055;-76
2022/11/19 11:23:56;;;;;;;0.47;0.40;;;;;;;1.55;71.58;101761.22;5040224;28;20128;-76
2022/11/19 11:26:25;;;;;;;1.83;0.55;;;;;;;1.54;71.51;101744.00;5040045;28;20049;-75
2022/11/19 11:28:59;;;;;;;2.00;0.70;;;;;;;1.55;72.06;101750.91;5040353;28;20700;-76
2022/11/19 11:31:37;;;;;;;1.25;0.60;;;;;;;1.56;71.39;101746.63;5039134;28;20056;-75
2022/11/19 11:34:07;;;;;;;0.85;0.30;;;;;;;1.54;70.73;101749.16;5036018;28;20037;-76
2022/11/19 11:36:37;;;;;;;0.10;0.10;;;;;;;1.56;70.78;101746.63;5038716;28;20045;-75
2022/11/19 11:39:05;;;;;;;0.70;0.40;;;;;;;1.55;71.30;101753.47;5038535;28;20120;-76
2022/11/19 11:41:38;;;;;;;0.47;0.30;;;;;;;1.56;71.63;101762.94;5038334;28;20057;-76
2022/11/19 11:44:09;;;;;;;1.02;0.40;;;;;;;1.57;71.71;101753.53;5036377;28;20040;-76
2022/11/19 11:46:41;;;;;;;0.63;0.30;;;;;;;1.57;72.04;101743.25;5036736;28;20045;-76
2022/11/19 11:49:22;;;;;;;0.30;0.28;;;;;;;1.56;71.89;101750.06;5039285;28;20045;-75
2022/11/19 11:51:59;;;;;;;0.32;0.20;;;;;;;1.58;71.75;101745.00;5037031;28;20057;-75
2022/11/19 11:54:26;;;;;;;0.22;0.20;;;;;;;1.57;71.61;101757.00;5037823;28;20144;-74
2022/11/19 11:56:53;;;;;;;1.38;0.20;;;;;;;1.56;71.73;101762.06;5040714;28;20375;-75
2022/11/19 11:59:26;;;;;;;0.60;0.25;;;;;;;1.56;72.00;101764.66;5039896;28;20053;-75
2022/11/19 12:01:54;;;;;;;0.10;0.10;;;;;;;1.48;72.08;101763.50;5037324;28;20052;-74
2022/11/19 12:04:24;;;;;;;0.60;0.20;;;;;;;1.53;73.16;101774.84;5040734;28;20051;-74
2022/11/19 12:07:04;;;;;;;2.88;0.40;;;;;;;1.49;72.88;101771.31;5038055;28;20414;-74